sensor_id;sensor_type;location;lat;lon;timestamp;pressure;altitude;pressure_sealevel;temperature;humidity
25130;BME280;13308;50.860;13.664;2023-03-19T05:55:27;96543.94;;;9.29;65.39
25130;BME280;13308;50.860;13.664;2023-03-19T05:58:03;96540.09;;;9.50;64.29
25130;BME280;13308;50.860;13.664;2023-03-19T06:00:28;96544.34;;;9.54;64.43
25130;BME280;13308;50.860;13.664;2023-03-19T06:02:54;96540.38;;;9.78;62.57
25130;BME280;13308;50.860;13.664;2023-03-19T06:05:36;96546.25;;;9.80;62.43
25130;BME280;13308;50.860;13.664;2023-03-19T06:08:19;96546.56;;;9.86;62.22
25130;BME280;13308;50.860;13.664;2023-03-19T06:11:08;96543.88;;;10.02;61.45
25130;BME280;13308;50.860;13.664;2023-03-19T06:13:34;96550.06;;;10.09;61.29
25130;BME280;13308;50.860;13.664;2023-03-19T06:16:05;96552.28;;;10.18;61.00
25130;BME280;13308;50.860;13.664;2023-03-19T06:18:38;96550.88;;;10.10;61.62
25130;BME280;13308;50.860;13.664;2023-03-19T06:21:08;96560.25;;;10.35;60.18
25130;BME280;13308;50.860;13.664;2023-03-19T06:23:33;96554.13;;;10.44;60.03
25130;BME280;13308;50.860;13.664;2023-03-19T06:26:01;96557.69;;;10.44;60.19
25130;BME280;13308;50.860;13.664;2023-03-19T06:28:32;96565.81;;;10.51;59.58
25130;BME280;13308;50.860;13.664;2023-03-19T06:30:57;96556.22;;;10.59;59.88
25130;BME280;13308;50.860;13.664;2023-03-19T06:33:46;96554.28;;;10.56;60.09
25130;BME280;13308;50.860;13.664;2023-03-19T06:36:11;96552.53;;;10.66;59.62
25130;BME280;13308;50.860;13.664;2023-03-19T06:38:37;96558.69;;;10.73;59.11
25130;BME280;13308;50.860;13.664;2023-03-19T06:41:03;96554.72;;;10.74;59.17
25130;BME280;13308;50.860;13.664;2023-03-19T06:43:28;96554.94;;;10.83;58.52
25130;BME280;13308;50.860;13.664;2023-03-19T06:45:54;96567.78;;;10.90;58.90
25130;BME280;13308;50.860;13.664;2023-03-19T06:48:19;96564.59;;;10.91;58.73
25130;BME280;13308;50.860;13.664;2023-03-19T06:50:45;96564.94;;;10.93;58.48
25130;BME280;13308;50.860;13.664;2023-03-19T06:53:11;96567.13;;;11.02;58.15
25130;BME280;13308;50.860;13.664;2023-03-19T06:55:37;96572.06;;;11.10;58.15
25130;BME280;13308;50.860;13.664;2023-03-19T06:58:02;96575.63;;;11.11;58.10
25130;BME280;13308;50.860;13.664;2023-03-19T07:00:27;96586.41;;;11.21;58.12
25130;BME280;13308;50.860;13.664;2023-03-19T07:02:53;96573.75;;;11.24;57.87
25130;BME280;13308;50.860;13.664;2023-03-19T07:05:18;96586.00;;;11.39;57.43
25130;BME280;13308;50.860;13.664;2023-03-19T07:07:43;96584.75;;;11.43;57.20
25130;BME280;13308;50.860;13.664;2023-03-19T07:10:09;96594.41;;;11.51;56.79
25130;BME280;13308;50.860;13.664;2023-03-19T07:12:34;96600.63;;;11.55;56.88
25130;BME280;13308;50.860;13.664;2023-03-19T07:15:00;96596.00;;;11.68;56.90
25130;BME280;13308;50.860;13.664;2023-03-19T07:17:25;96590.31;;;11.75;56.77
25130;BME280;13308;50.860;13.664;2023-03-19T07:19:51;96599.66;;;11.97;56.79
25130;BME280;13308;50.860;13.664;2023-03-19T07:22:17;96600.22;;;12.05;57.80
25130;BME280;13308;50.860;13.664;2023-03-19T07:24:43;96608.41;;;12.24;57.71
25130;BME280;13308;50.860;13.664;2023-03-19T07:27:08;96598.97;;;12.54;55.60
25130;BME280;13308;50.860;13.664;2023-03-19T07:29:33;96599.53;;;12.61;55.36
25130;BME280;13308;50.860;13.664;2023-03-19T07:31:59;96607.50;;;12.59;55.31
25130;BME280;13308;50.860;13.664;2023-03-19T07:34:24;96599.25;;;12.72;54.66
25130;BME280;13308;50.860;13.664;2023-03-19T07:36:50;96595.38;;;12.69;54.00
25130;BME280;13308;50.860;13.664;2023-03-19T07:39:17;96596.72;;;12.77;54.48
25130;BME280;13308;50.860;13.664;2023-03-19T07:41:42;96590.00;;;12.91;54.10
25130;BME280;13308;50.860;13.664;2023-03-19T07:44:12;96599.94;;;13.04;53.56
25130;BME280;13308;50.860;13.664;2023-03-19T07:46:38;96591.53;;;13.20;53.95
25130;BME280;13308;50.860;13.664;2023-03-19T07:49:03;96592.00;;;13.31;53.57
25130;BME280;13308;50.860;13.664;2023-03-19T07:51:28;96586.91;;;13.42;53.08
25130;BME280;13308;50.860;13.664;2023-03-19T07:53:54;96596.91;;;13.52;53.16
25130;BME280;13308;50.860;13.664;2023-03-19T07:56:19;96592.22;;;13.74;52.63
25130;BME280;13308;50.860;13.664;2023-03-19T07:58:44;96601.75;;;13.73;52.73
25130;BME280;13308;50.860;13.664;2023-03-19T08:01:10;96595.78;;;13.87;52.15
25130;BME280;13308;50.860;13.664;2023-03-19T08:03:35;96605.09;;;13.93;52.60
25130;BME280;13308;50.860;13.664;2023-03-19T08:06:01;96601.75;;;13.98;52.96
25130;BME280;13308;50.860;13.664;2023-03-19T08:08:26;96602.16;;;14.09;52.74
25130;BME280;13308;50.860;13.664;2023-03-19T08:10:53;96609.13;;;14.39;52.92
25130;BME280;13308;50.860;13.664;2023-03-19T08:13:18;96607.22;;;14.48;52.26
25130;BME280;13308;50.860;13.664;2023-03-19T08:15:43;96616.25;;;14.40;53.43
25130;BME280;13308;50.860;13.664;2023-03-19T08:18:09;96610.31;;;14.50;52.68
25130;BME280;13308;50.860;13.664;2023-03-19T08:20:34;96619.53;;;14.81;52.04
25130;BME280;13308;50.860;13.664;2023-03-19T08:22:59;96617.56;;;14.69;53.43
25130;BME280;13308;50.860;13.664;2023-03-19T08:25:25;96617.97;;;14.80;52.76
25130;BME280;13308;50.860;13.664;2023-03-19T08:27:51;96619.22;;;15.01;52.67
25130;BME280;13308;50.860;13.664;2023-03-19T08:30:17;96620.53;;;15.09;51.86
25130;BME280;13308;50.860;13.664;2023-03-19T08:32:42;96616.31;;;15.04;51.69
25130;BME280;13308;50.860;13.664;2023-03-19T08:35:11;96622.25;;;15.15;51.89
25130;BME280;13308;50.860;13.664;2023-03-19T08:37:36;96618.63;;;15.27;53.70
25130;BME280;13308;50.860;13.664;2023-03-19T08:40:02;96626.81;;;15.52;52.67
25130;BME280;13308;50.860;13.664;2023-03-19T08:42:29;96629.69;;;15.61;52.25
25130;BME280;13308;50.860;13.664;2023-03-19T08:44:54;96631.53;;;15.64;52.00
25130;BME280;13308;50.860;13.664;2023-03-19T08:47:20;96629.31;;;15.81;51.62
25130;BME280;13308;50.860;13.664;2023-03-19T08:49:48;96633.19;;;15.83;51.42
25130;BME280;13308;50.860;13.664;2023-03-19T08:52:14;96634.09;;;15.80;51.21
25130;BME280;13308;50.860;13.664;2023-03-19T08:54:39;96634.38;;;15.73;52.25
25130;BME280;13308;50.860;13.664;2023-03-19T08:57:05;96636.19;;;15.67;52.81
25130;BME280;13308;50.860;13.664;2023-03-19T08:59:30;96636.59;;;15.87;52.43
25130;BME280;13308;50.860;13.664;2023-03-19T09:01:55;96635.75;;;16.08;51.60
25130;BME280;13308;50.860;13.664;2023-03-19T09:04:21;96638.84;;;16.10;52.46
25130;BME280;13308;50.860;13.664;2023-03-19T09:06:47;96636.59;;;16.36;52.10
25130;BME280;13308;50.860;13.664;2023-03-19T09:09:17;96640.28;;;16.33;52.01
25130;BME280;13308;50.860;13.664;2023-03-19T09:11:42;96643.28;;;16.47;51.62
25130;BME280;13308;50.860;13.664;2023-03-19T09:14:08;96645.63;;;16.49;52.44
25130;BME280;13308;50.860;13.664;2023-03-19T09:16:35;96638.03;;;16.40;51.79
25130;BME280;13308;50.860;13.664;2023-03-19T09:19:01;96645.78;;;16.54;51.73
25130;BME280;13308;50.860;13.664;2023-03-19T09:21:26;96638.34;;;16.60;51.06
25130;BME280;13308;50.860;13.664;2023-03-19T09:23:51;96647.38;;;16.73;51.68
25130;BME280;13308;50.860;13.664;2023-03-19T09:26:17;96643.16;;;16.51;51.06
25130;BME280;13308;50.860;13.664;2023-03-19T09:28:42;96645.31;;;16.56;51.67
25130;BME280;13308;50.860;13.664;2023-03-19T09:31:10;96647.81;;;16.54;50.77
25130;BME280;13308;50.860;13.664;2023-03-19T09:33:36;96649.03;;;16.62;51.20
25130;BME280;13308;50.860;13.664;2023-03-19T09:36:01;96642.72;;;16.61;50.87
25130;BME280;13308;50.860;13.664;2023-03-19T09:38:26;96643.34;;;16.83;51.21
25130;BME280;13308;50.860;13.664;2023-03-19T09:43:35;96639.94;;;16.88;51.90
25130;BME280;13308;50.860;13.664;2023-03-19T09:46:10;96636.25;;;17.09;51.35
25130;BME280;13308;50.860;13.664;2023-03-19T09:48:48;96637.13;;;17.51;51.00
25130;BME280;13308;50.860;13.664;2023-03-19T09:51:20;96630.03;;;17.50;49.62
25130;BME280;13308;50.860;13.664;2023-03-19T09:53:57;96633.75;;;17.38;50.55
25130;BME280;13308;50.860;13.664;2023-03-19T09:56:24;96637.75;;;17.37;50.15
25130;BME280;13308;50.860;13.664;2023-03-19T09:58:51;96632.81;;;17.41;50.90
25130;BME280;13308;50.860;13.664;2023-03-19T10:01:24;96629.22;;;17.50;49.21
25130;BME280;13308;50.860;13.664;2023-03-19T10:04:24;96624.13;;;17.57;49.67
25130;BME280;13308;50.860;13.664;2023-03-19T10:07:10;96623.19;;;17.42;51.02
25130;BME280;13308;50.860;13.664;2023-03-19T10:09:51;96630.94;;;17.47;50.34
25130;BME280;13308;50.860;13.664;2023-03-19T10:12:43;96634.59;;;17.71;49.21
25130;BME280;13308;50.860;13.664;2023-03-19T10:15:32;96629.31;;;17.82;49.19
25130;BME280;13308;50.860;13.664;2023-03-19T10:18:16;96638.00;;;17.75;49.06
25130;BME280;13308;50.860;13.664;2023-03-19T10:21:06;96629.56;;;17.43;49.94
25130;BME280;13308;50.860;13.664;2023-03-19T10:23:41;96638.97;;;17.63;49.43
25130;BME280;13308;50.860;13.664;2023-03-19T10:26:11;96630.78;;;17.33;49.53
25130;BME280;13308;50.860;13.664;2023-03-19T10:28:40;96636.81;;;17.49;50.20
25130;BME280;13308;50.860;13.664;2023-03-19T10:31:24;96633.38;;;17.63;50.56
25130;BME280;13308;50.860;13.664;2023-03-19T10:33:59;96636.97;;;18.05;49.44
25130;BME280;13308;50.860;13.664;2023-03-19T10:36:33;96633.53;;;18.10;48.65
25130;BME280;13308;50.860;13.664;2023-03-19T10:38:59;96627.69;;;17.99;48.44
25130;BME280;13308;50.860;13.664;2023-03-19T10:41:50;96633.38;;;18.46;48.49
25130;BME280;13308;50.860;13.664;2023-03-19T10:44:34;96634.13;;;18.93;47.92
25130;BME280;13308;50.860;13.664;2023-03-19T10:47:11;96643.31;;;19.32;46.70
25130;BME280;13308;50.860;13.664;2023-03-19T10:49:37;96637.56;;;19.12;47.47
25130;BME280;13308;50.860;13.664;2023-03-19T10:52:04;96633.59;;;19.71;47.97
25130;BME280;13308;50.860;13.664;2023-03-19T10:54:29;96628.34;;;19.93;46.55
25130;BME280;13308;50.860;13.664;2023-03-19T10:56:59;96633.88;;;19.73;46.48
25130;BME280;13308;50.860;13.664;2023-03-19T11:01:58;96638.59;;;19.81;46.20
25130;BME280;13308;50.860;13.664;2023-03-19T11:04:25;96630.22;;;19.52;46.98
25130;BME280;13308;50.860;13.664;2023-03-19T11:06:55;96636.09;;;19.69;46.94
25130;BME280;13308;50.860;13.664;2023-03-19T11:09:35;96625.50;;;19.06;48.20
25130;BME280;13308;50.860;13.664;2023-03-19T11:12:22;96620.41;;;18.81;47.31
25130;BME280;13308;50.860;13.664;2023-03-19T11:14:51;96616.88;;;18.95;47.46
25130;BME280;13308;50.860;13.664;2023-03-19T11:19:57;96617.25;;;18.41;49.03
25130;BME280;13308;50.860;13.664;2023-03-19T11:22:30;96627.06;;;18.60;48.48
25130;BME280;13308;50.860;13.664;2023-03-19T11:25:01;96613.47;;;18.53;49.67
25130;BME280;13308;50.860;13.664;2023-03-19T11:27:33;96617.16;;;18.59;49.23
25130;BME280;13308;50.860;13.664;2023-03-19T11:30:00;96607.41;;;18.55;49.60
25130;BME280;13308;50.860;13.664;2023-03-19T11:35:14;96611.22;;;18.43;49.43
25130;BME280;13308;50.860;13.664;2023-03-19T11:37:55;96609.56;;;18.27;49.55
25130;BME280;13308;50.860;13.664;2023-03-19T11:46:02;96614.13;;;18.48;49.48
25130;BME280;13308;50.860;13.664;2023-03-19T11:51:27;96612.31;;;18.83;49.30
25130;BME280;13308;50.860;13.664;2023-03-19T11:54:19;96612.78;;;19.05;49.76
25130;BME280;13308;50.860;13.664;2023-03-19T11:56:57;96607.97;;;19.20;48.72
25130;BME280;13308;50.860;13.664;2023-03-19T11:59:44;96609.94;;;19.28;47.96
25130;BME280;13308;50.860;13.664;2023-03-19T12:02:34;96600.38;;;19.21;48.74
25130;BME280;13308;50.860;13.664;2023-03-19T12:10:47;96613.38;;;20.25;48.57
25130;BME280;13308;50.860;13.664;2023-03-19T12:22:06;96615.56;;;20.35;47.25
25130;BME280;13308;50.860;13.664;2023-03-19T12:24:59;96607.97;;;20.21;47.25
25130;BME280;13308;50.860;13.664;2023-03-19T12:27:33;96609.53;;;19.93;48.93
25130;BME280;13308;50.860;13.664;2023-03-19T12:30:20;96616.97;;;20.11;49.06
25130;BME280;13308;50.860;13.664;2023-03-19T12:32:58;96622.47;;;20.20;49.81
25130;BME280;13308;50.860;13.664;2023-03-19T12:35:33;96618.44;;;20.41;49.40
25130;BME280;13308;50.860;13.664;2023-03-19T12:40:58;96617.47;;;20.44;49.62
25130;BME280;13308;50.860;13.664;2023-03-19T12:43:50;96624.06;;;20.61;50.41
25130;BME280;13308;50.860;13.664;2023-03-19T12:46:29;96612.88;;;20.81;50.90
25130;BME280;13308;50.860;13.664;2023-03-19T12:49:21;96614.19;;;21.25;49.63
25130;BME280;13308;50.860;13.664;2023-03-19T12:51:57;96619.00;;;21.45;49.52
25130;BME280;13308;50.860;13.664;2023-03-19T12:54:33;96621.84;;;21.70;47.97
25130;BME280;13308;50.860;13.664;2023-03-19T12:57:09;96614.38;;;21.93;47.91
25130;BME280;13308;50.860;13.664;2023-03-19T13:02:25;96628.81;;;21.55;47.31
25130;BME280;13308;50.860;13.664;2023-03-19T13:04:56;96630.28;;;21.05;47.25
25130;BME280;13308;50.860;13.664;2023-03-19T13:07:33;96621.28;;;20.81;46.95
25130;BME280;13308;50.860;13.664;2023-03-19T13:10:09;96633.50;;;20.09;47.43
25130;BME280;13308;50.860;13.664;2023-03-19T13:12:35;96626.06;;;19.77;48.37
25130;BME280;13308;50.860;13.664;2023-03-19T13:15:27;96624.91;;;19.54;49.15
25130;BME280;13308;50.860;13.664;2023-03-19T13:18:19;96622.75;;;18.97;50.59
25130;BME280;13308;50.860;13.664;2023-03-19T13:21:15;96613.50;;;18.91;52.17
25130;BME280;13308;50.860;13.664;2023-03-19T13:23:43;96623.56;;;18.74;52.38
25130;BME280;13308;50.860;13.664;2023-03-19T13:26:12;96621.66;;;18.57;52.58
25130;BME280;13308;50.860;13.664;2023-03-19T13:28:53;96618.34;;;18.44;52.89
25130;BME280;13308;50.860;13.664;2023-03-19T13:31:22;96622.91;;;18.23;53.76
25130;BME280;13308;50.860;13.664;2023-03-19T13:34:24;96627.94;;;18.10;54.62
25130;BME280;13308;50.860;13.664;2023-03-19T13:36:59;96621.56;;;17.77;55.41
25130;BME280;13308;50.860;13.664;2023-03-19T13:39:28;96623.59;;;17.77;55.93
25130;BME280;13308;50.860;13.664;2023-03-19T13:45:00;96626.59;;;17.37;56.11
25130;BME280;13308;50.860;13.664;2023-03-19T13:58:05;96623.41;;;16.76;57.03
25130;BME280;13308;50.860;13.664;2023-03-19T14:03:32;96625.41;;;16.75;58.34
25130;BME280;13308;50.860;13.664;2023-03-19T14:05:59;96623.22;;;16.70;56.99
25130;BME280;13308;50.860;13.664;2023-03-19T14:08:32;96629.56;;;16.71;56.55
25130;BME280;13308;50.860;13.664;2023-03-19T14:10:59;96623.41;;;16.76;57.43
25130;BME280;13308;50.860;13.664;2023-03-19T14:13:47;96627.56;;;16.80;56.71
25130;BME280;13308;50.860;13.664;2023-03-19T14:16:34;96627.09;;;16.73;57.25
25130;BME280;13308;50.860;13.664;2023-03-19T14:19:02;96621.81;;;16.75;57.36
25130;BME280;13308;50.860;13.664;2023-03-19T14:21:40;96622.75;;;16.72;57.96
25130;BME280;13308;50.860;13.664;2023-03-19T14:24:34;96624.75;;;16.71;58.26
25130;BME280;13308;50.860;13.664;2023-03-19T14:27:12;96620.88;;;16.69;58.27
25130;BME280;13308;50.860;13.664;2023-03-19T14:29:41;96622.63;;;16.66;58.01
25130;BME280;13308;50.860;13.664;2023-03-19T14:32:08;96614.56;;;16.68;59.24
25130;BME280;13308;50.860;13.664;2023-03-19T14:34:39;96611.78;;;16.86;58.43
25130;BME280;13308;50.860;13.664;2023-03-19T14:37:22;96610.53;;;16.87;58.59
25130;BME280;13308;50.860;13.664;2023-03-19T14:39:54;96613.47;;;16.93;58.42
25130;BME280;13308;50.860;13.664;2023-03-19T14:42:26;96623.22;;;16.88;58.78
25130;BME280;13308;50.860;13.664;2023-03-19T14:45:19;96613.47;;;16.93;59.62
25130;BME280;13308;50.860;13.664;2023-03-19T14:48:11;96617.66;;;16.88;59.89
25130;BME280;13308;50.860;13.664;2023-03-19T14:50:58;96617.06;;;16.84;60.27
25130;BME280;13308;50.860;13.664;2023-03-19T14:53:38;96615.19;;;16.72;61.01
25130;BME280;13308;50.860;13.664;2023-03-19T14:56:35;96615.03;;;16.76;61.28
25130;BME280;13308;50.860;13.664;2023-03-19T14:59:00;96614.25;;;16.93;60.97
25130;BME280;13308;50.860;13.664;2023-03-19T15:01:30;96630.66;;;16.91;61.60
25130;BME280;13308;50.860;13.664;2023-03-19T15:03:58;96620.28;;;16.83;60.33
25130;BME280;13308;50.860;13.664;2023-03-19T15:06:35;96607.88;;;16.57;61.12
25130;BME280;13308;50.860;13.664;2023-03-19T15:09:06;96613.16;;;16.46;61.98
25130;BME280;13308;50.860;13.664;2023-03-19T15:11:48;96622.22;;;16.37;61.92
25130;BME280;13308;50.860;13.664;2023-03-19T15:14:31;96632.97;;;16.08;64.24
25130;BME280;13308;50.860;13.664;2023-03-19T15:17:10;96629.19;;;15.32;71.97
25130;BME280;13308;50.860;13.664;2023-03-19T15:19:39;96627.09;;;15.02;74.32
25130;BME280;13308;50.860;13.664;2023-03-19T15:22:14;96625.34;;;14.74;76.64
25130;BME280;13308;50.860;13.664;2023-03-19T15:24:43;96627.75;;;14.51;78.15
25130;BME280;13308;50.860;13.664;2023-03-19T15:27:34;96620.25;;;14.26;80.78
25130;BME280;13308;50.860;13.664;2023-03-19T15:30:00;96631.47;;;14.35;79.83
25130;BME280;13308;50.860;13.664;2023-03-19T15:32:44;96634.13;;;14.26;82.89
25130;BME280;13308;50.860;13.664;2023-03-19T15:35:09;96629.03;;;14.12;85.92
25130;BME280;13308;50.860;13.664;2023-03-19T15:37:42;96630.38;;;13.95;89.11
25130;BME280;13308;50.860;13.664;2023-03-19T15:40:13;96632.16;;;13.89;90.92
25130;BME280;13308;50.860;13.664;2023-03-19T15:42:44;96633.94;;;13.83;91.03
25130;BME280;13308;50.860;13.664;2023-03-19T15:45:12;96631.91;;;13.59;93.50
25130;BME280;13308;50.860;13.664;2023-03-19T15:47:46;96650.56;;;13.58;93.86
25130;BME280;13308;50.860;13.664;2023-03-19T15:50:15;96653.28;;;13.46;95.56
25130;BME280;13308;50.860;13.664;2023-03-19T15:52:46;96642.63;;;13.32;97.77
25130;BME280;13308;50.860;13.664;2023-03-19T15:55:13;96647.28;;;13.22;98.27
25130;BME280;13308;50.860;13.664;2023-03-19T15:57:40;96646.47;;;13.09;100.00
25130;BME280;13308;50.860;13.664;2023-03-19T16:00:07;96647.72;;;12.92;98.27
25130;BME280;13308;50.860;13.664;2023-03-19T16:02:41;96651.00;;;12.87;98.66
25130;BME280;13308;50.860;13.664;2023-03-19T16:05:26;96652.06;;;12.77;99.51
25130;BME280;13308;50.860;13.664;2023-03-19T16:07:56;96656.06;;;12.76;99.05
25130;BME280;13308;50.860;13.664;2023-03-19T16:12:52;96664.78;;;12.75;99.46
25130;BME280;13308;50.860;13.664;2023-03-19T16:15:41;96661.88;;;12.66;99.76
25130;BME280;13308;50.860;13.664;2023-03-19T16:18:29;96657.38;;;12.56;100.00
25130;BME280;13308;50.860;13.664;2023-03-19T16:21:02;96673.19;;;12.55;100.00
25130;BME280;13308;50.860;13.664;2023-03-19T16:23:39;96670.28;;;12.46;100.00
25130;BME280;13308;50.860;13.664;2023-03-19T16:26:15;96676.94;;;12.33;100.00
25130;BME280;13308;50.860;13.664;2023-03-19T16:28:45;96673.41;;;12.32;100.00
25130;BME280;13308;50.860;13.664;2023-03-19T16:31:23;96672.97;;;12.34;100.00
25130;BME280;13308;50.860;13.664;2023-03-19T16:33:50;96679.47;;;12.27;100.00
25130;BME280;13308;50.860;13.664;2023-03-19T16:36:17;96687.06;;;12.23;100.00
25130;BME280;13308;50.860;13.664;2023-03-19T16:38:51;96694.66;;;12.03;100.00
25130;BME280;13308;50.860;13.664;2023-03-19T16:41:38;96695.25;;;11.95;100.00
25130;BME280;13308;50.860;13.664;2023-03-19T16:44:14;96691.88;;;11.87;100.00
25130;BME280;13308;50.860;13.664;2023-03-19T16:46:40;96687.56;;;11.86;100.00
25130;BME280;13308;50.860;13.664;2023-03-19T16:49:05;96689.19;;;11.84;100.00
25130;BME280;13308;50.860;13.664;2023-03-19T16:51:31;96698.78;;;11.79;100.00
25130;BME280;13308;50.860;13.664;2023-03-19T16:53:56;96703.59;;;11.75;100.00
25130;BME280;13308;50.860;13.664;2023-03-19T16:56:22;96702.03;;;11.74;100.00
25130;BME280;13308;50.860;13.664;2023-03-19T16:58:47;96705.88;;;11.61;100.00
25130;BME280;13308;50.860;13.664;2023-03-19T17:01:22;96700.78;;;11.59;100.00
25130;BME280;13308;50.860;13.664;2023-03-19T17:03:48;96707.16;;;11.56;100.00
25130;BME280;13308;50.860;13.664;2023-03-19T17:06:15;96713.50;;;11.53;100.00
25130;BME280;13308;50.860;13.664;2023-03-19T17:08:41;96713.75;;;11.43;100.00
25130;BME280;13308;50.860;13.664;2023-03-19T17:11:17;96704.16;;;11.47;100.00
25130;BME280;13308;50.860;13.664;2023-03-19T17:13:45;96716.09;;;11.44;100.00
25130;BME280;13308;50.860;13.664;2023-03-19T17:16:16;96708.28;;;11.39;100.00
25130;BME280;13308;50.860;13.664;2023-03-19T17:18:41;96706.03;;;11.34;100.00
25130;BME280;13308;50.860;13.664;2023-03-19T17:23:41;96707.72;;;11.28;100.00
25130;BME280;13308;50.860;13.664;2023-03-19T17:26:24;96708.03;;;11.14;100.00
25130;BME280;13308;50.860;13.664;2023-03-19T17:28:50;96705.31;;;11.30;100.00
25130;BME280;13308;50.860;13.664;2023-03-19T17:31:28;96707.22;;;11.14;100.00
25130;BME280;13308;50.860;13.664;2023-03-19T17:33:58;96705.41;;;11.07;100.00
25130;BME280;13308;50.860;13.664;2023-03-19T17:36:25;96714.22;;;11.18;100.00
25130;BME280;13308;50.860;13.664;2023-03-19T17:38:50;96710.00;;;11.14;100.00
25130;BME280;13308;50.860;13.664;2023-03-19T17:41:17;96717.84;;;11.15;100.00
25130;BME280;13308;50.860;13.664;2023-03-19T17:43:44;96716.22;;;10.98;100.00
25130;BME280;13308;50.860;13.664;2023-03-19T17:46:21;96710.19;;;10.84;100.00
25130;BME280;13308;50.860;13.664;2023-03-19T17:48:48;96721.06;;;10.71;100.00
25130;BME280;13308;50.860;13.664;2023-03-19T17:51:14;96718.00;;;10.66;100.00
25130;BME280;13308;50.860;13.664;2023-03-19T17:53:42;96713.75;;;10.61;100.00
25130;BME280;13308;50.860;13.664;2023-03-19T17:56:13;96715.44;;;10.55;100.00
25130;BME280;13308;50.860;13.664;2023-03-19T17:58:39;96718.19;;;10.55;100.00
25130;BME280;13308;50.860;13.664;2023-03-19T18:01:13;96714.50;;;10.62;100.00
25130;BME280;13308;50.860;13.664;2023-03-19T18:03:38;96711.47;;;10.56;100.00
25130;BME280;13308;50.860;13.664;2023-03-19T18:06:04;96723.34;;;10.53;100.00
25130;BME280;13308;50.860;13.664;2023-03-19T18:08:31;96717.13;;;10.49;100.00
25130;BME280;13308;50.860;13.664;2023-03-19T18:10:57;96710.88;;;10.45;100.00
25130;BME280;13308;50.860;13.664;2023-03-19T18:13:22;96719.34;;;10.35;100.00
25130;BME280;13308;50.860;13.664;2023-03-19T18:15:47;96709.19;;;10.28;100.00
25130;BME280;13308;50.860;13.664;2023-03-19T18:18:18;96719.97;;;10.19;100.00
25130;BME280;13308;50.860;13.664;2023-03-19T18:20:44;96716.50;;;10.15;100.00
25130;BME280;13308;50.860;13.664;2023-03-19T18:23:12;96713.28;;;10.20;100.00
25130;BME280;13308;50.860;13.664;2023-03-19T18:25:41;96715.66;;;10.18;100.00
25130;BME280;13308;50.860;13.664;2023-03-19T18:28:06;96704.72;;;10.15;100.00
25130;BME280;13308;50.860;13.664;2023-03-19T18:30:34;96713.00;;;10.11;100.00
25130;BME280;13308;50.860;13.664;2023-03-19T18:33:02;96721.66;;;10.13;100.00
25130;BME280;13308;50.860;13.664;2023-03-19T18:35:31;96723.69;;;10.09;100.00
25130;BME280;13308;50.860;13.664;2023-03-19T18:37:58;96716.63;;;10.08;100.00
25130;BME280;13308;50.860;13.664;2023-03-19T18:40:26;96719.00;;;10.06;100.00
25130;BME280;13308;50.860;13.664;2023-03-19T18:42:52;96720.19;;;10.05;100.00
25130;BME280;13308;50.860;13.664;2023-03-19T18:45:18;96717.88;;;10.04;100.00
25130;BME280;13308;50.860;13.664;2023-03-19T18:47:45;96712.38;;;10.00;100.00
25130;BME280;13308;50.860;13.664;2023-03-19T18:52:37;96714.75;;;9.98;100.00
25130;BME280;13308;50.860;13.664;2023-03-19T18:55:02;96721.13;;;9.95;100.00
25130;BME280;13308;50.860;13.664;2023-03-19T18:57:27;96723.06;;;9.95;100.00
25130;BME280;13308;50.860;13.664;2023-03-19T18:59:53;96720.72;;;9.93;100.00
25130;BME280;13308;50.860;13.664;2023-03-19T19:02:33;96725.06;;;9.94;100.00
25130;BME280;13308;50.860;13.664;2023-03-19T19:04:59;96723.88;;;9.95;100.00
25130;BME280;13308;50.860;13.664;2023-03-19T19:07:25;96719.91;;;9.96;100.00
25130;BME280;13308;50.860;13.664;2023-03-19T19:09:50;96722.66;;;9.96;100.00
25130;BME280;13308;50.860;13.664;2023-03-19T19:12:16;96722.66;;;9.96;100.00
25130;BME280;13308;50.860;13.664;2023-03-19T19:14:42;96732.50;;;9.97;100.00
25130;BME280;13308;50.860;13.664;2023-03-19T19:17:15;96729.72;;;9.97;100.00
25130;BME280;13308;50.860;13.664;2023-03-19T19:19:41;96730.53;;;9.98;100.00
25130;BME280;13308;50.860;13.664;2023-03-19T19:22:12;96732.50;;;9.97;100.00
25130;BME280;13308;50.860;13.664;2023-03-19T19:24:37;96730.59;;;9.94;100.00
25130;BME280;13308;50.860;13.664;2023-03-19T19:27:03;96737.66;;;9.95;100.00
25130;BME280;13308;50.860;13.664;2023-03-19T19:29:28;96732.44;;;10.01;100.00
25130;BME280;13308;50.860;13.664;2023-03-19T19:31:54;96743.50;;;9.97;100.00
25130;BME280;13308;50.860;13.664;2023-03-19T19:34:20;96738.41;;;9.96;100.00
25130;BME280;13308;50.860;13.664;2023-03-19T19:36:46;96741.16;;;9.96;100.00
25130;BME280;13308;50.860;13.664;2023-03-19T19:39:11;96733.69;;;9.96;100.00
25130;BME280;13308;50.860;13.664;2023-03-19T19:41:37;96736.56;;;9.89;100.00
25130;BME280;13308;50.860;13.664;2023-03-19T19:44:03;96743.63;;;9.90;100.00
25130;BME280;13308;50.860;13.664;2023-03-19T19:46:30;96737.75;;;9.88;100.00
25130;BME280;13308;50.860;13.664;2023-03-19T19:48:56;96744.81;;;9.89;100.00
25130;BME280;13308;50.860;13.664;2023-03-19T19:51:24;96740.00;;;9.97;100.00
25130;BME280;13308;50.860;13.664;2023-03-19T19:53:50;96742.78;;;9.93;100.00
25130;BME280;13308;50.860;13.664;2023-03-19T19:56:21;96741.53;;;9.98;100.00
25130;BME280;13308;50.860;13.664;2023-03-19T19:58:50;96743.16;;;9.95;100.00
25130;BME280;13308;50.860;13.664;2023-03-19T20:01:18;96748.72;;;9.92;100.00
25130;BME280;13308;50.860;13.664;2023-03-19T20:03:44;96745.53;;;9.93;100.00
25130;BME280;13308;50.860;13.664;2023-03-19T20:06:10;96744.66;;;10.00;100.00